Crater Lake National Park, OR

11:13 AM PDT on October 24, 2014 (GMT -0700)
Klamath Agency on Wood River Canal | Change Station
CLOSE
Current Station
Personal Weather Station
Location: Chiloquin, OR
Elevation: 4170 ft
Nearby Weather Stations

Elev 4170 ft 42.58 °N, 121.93 °W | Updated 12 minutes ago

Overcast
Overcast
44.3 °F
Feels Like 44 °F
N
0.0
Wind Variable Wind from NW
Gusts 7.0 mph

Today
High -- | Low -- °F
--% Chance of Precip.
Yesterday
High -- | Low -- °F
Precip. -- in
7:31 AM 6:11 PM
New Moon, 1% visible
Pressure 29.94 in
Visibility 10.0 miles
Clouds Few 9500 ft
Windchill 44 °F
Dew Point 43 °F
Humidity 96%
Rainfall 0.29 in
Snow Depth 0 in , 0 in
UV 3 out of 12
Pollen .40 out of 12
Air Quality Not available.
Flu Activity Sporadic
METAR KLMT 241753Z 14015KT 10SM FEW095 12/07 A2998 RMK AO2 SLP139 60003 T01220072 10122 20061 58008

More Conditions Fewer Conditions

Pressure 29.94 in
Visibility 10.0 miles
Clouds Few 9500 ft
Windchill 44 °F
Dew Point 43 °F
Humidity 96%
Rainfall 0.29 in
Snow Depth 0 in , 0 in
UV 3 out of 12
Pollen .40 out of 12
Air Quality Not available.
Flu Activity Sporadic
METAR KLMT 241753Z 14015KT 10SM FEW095 12/07 A2998 RMK AO2 SLP139 60003 T01220072 10122 20061 58008

More Conditions Fewer Conditions

10-Day Weather Forecast

Almanac

Astronomy

Oct. 24, 2014 Rise Set
Actual Time 7:31 AM PDT 6:11 PM PDT
Civil Twilight 7:02 AM PDT 6:39 PM PDT
Nautical Twilight 6:29 AM PDT 7:12 PM PDT
Astronomical Twilight 5:56 AM PDT 7:45 PM PDT
Moon 8:16 AM PDT 6:53 PM PDT
Length of Visible Light 11h 37m
Length of Day
10h 39m
Tomorrow will be 2m 41s shorter.
New Moon, 1% of the Moon is Illuminated
Today
New Moon
Oct 30
First Quarter
Nov 6
Full
Nov 14
Last Quarter
Nov 22
New

Today's Extremes

State Highs State Lows

Community

WunderPhotos

Upload Photos

1,764,628 photos uploaded!

Nearby

Snow Depth

Station Depth Elevation
Sevenmile Marsh 0 in 6200 ft
Cold Springs Camp 0 in 6100 ft
Fourmile Lake 0 in 6000 ft
Billie Creek Divide 0 in 5300 ft
Taylor Butte 0 in 5100 ft

Earthquake Activity

City Distance Mag. Time & Date
No recent earthquake activity has been reported nearby.
Minimum magnitude displayed is 2.5.

Coastal Water Temperatures

Place Temperature
No Stations Reporting

Nearby Weather Stations